sensor_id;sensor_type;location;lat;lon;timestamp;temperature;humidity
11700;DHT22;5906;51.660;6.674;2023-07-09T00:01:22;23.50;95.00
11700;DHT22;5906;51.660;6.674;2023-07-09T00:03:49;23.40;96.10
11700;DHT22;5906;51.660;6.674;2023-07-09T00:06:19;23.40;97.20
11700;DHT22;5906;51.660;6.674;2023-07-09T00:08:48;23.30;97.70
11700;DHT22;5906;51.660;6.674;2023-07-09T00:11:16;23.30;98.00
11700;DHT22;5906;51.660;6.674;2023-07-09T00:13:43;23.20;98.50
11700;DHT22;5906;51.660;6.674;2023-07-09T00:16:19;23.20;99.10
11700;DHT22;5906;51.660;6.674;2023-07-09T00:18:48;23.20;99.10
11700;DHT22;5906;51.660;6.674;2023-07-09T00:21:20;23.20;99.30
11700;DHT22;5906;51.660;6.674;2023-07-09T00:23:50;23.20;99.90
11700;DHT22;5906;51.660;6.674;2023-07-09T00:26:18;23.10;99.90
11700;DHT22;5906;51.660;6.674;2023-07-09T00:28:50;23.00;99.90
11700;DHT22;5906;51.660;6.674;2023-07-09T00:31:17;23.00;99.90
11700;DHT22;5906;51.660;6.674;2023-07-09T00:33:44;23.00;99.90
11700;DHT22;5906;51.660;6.674;2023-07-09T00:36:20;23.00;99.90
11700;DHT22;5906;51.660;6.674;2023-07-09T00:38:51;23.00;99.90
11700;DHT22;5906;51.660;6.674;2023-07-09T00:41:21;23.00;99.90
11700;DHT22;5906;51.660;6.674;2023-07-09T00:43:50;23.00;99.90
11700;DHT22;5906;51.660;6.674;2023-07-09T00:49:02;22.90;99.90
11700;DHT22;5906;51.660;6.674;2023-07-09T00:51:34;22.90;99.90
11700;DHT22;5906;51.660;6.674;2023-07-09T00:54:19;22.80;99.90
11700;DHT22;5906;51.660;6.674;2023-07-09T00:56:51;22.80;99.90
11700;DHT22;5906;51.660;6.674;2023-07-09T00:59:23;22.80;99.90
11700;DHT22;5906;51.660;6.674;2023-07-09T01:01:53;22.70;99.90
11700;DHT22;5906;51.660;6.674;2023-07-09T01:04:21;22.80;99.90
11700;DHT22;5906;51.660;6.674;2023-07-09T01:06:54;22.70;99.90
11700;DHT22;5906;51.660;6.674;2023-07-09T01:09:23;22.60;99.90
11700;DHT22;5906;51.660;6.674;2023-07-09T01:11:50;22.50;99.90
11700;DHT22;5906;51.660;6.674;2023-07-09T01:14:19;22.50;99.90
11700;DHT22;5906;51.660;6.674;2023-07-09T01:16:52;22.40;99.90
11700;DHT22;5906;51.660;6.674;2023-07-09T01:19:35;22.40;99.90
11700;DHT22;5906;51.660;6.674;2023-07-09T01:22:16;22.30;99.90
11700;DHT22;5906;51.660;6.674;2023-07-09T01:27:21;22.10;99.90
11700;DHT22;5906;51.660;6.674;2023-07-09T01:29:49;22.00;99.90
11700;DHT22;5906;51.660;6.674;2023-07-09T01:32:18;22.00;99.90
11700;DHT22;5906;51.660;6.674;2023-07-09T01:34:46;21.90;99.90
11700;DHT22;5906;51.660;6.674;2023-07-09T01:37:17;21.90;99.90
11700;DHT22;5906;51.660;6.674;2023-07-09T01:39:44;21.70;99.90
11700;DHT22;5906;51.660;6.674;2023-07-09T01:42:11;21.70;99.90
11700;DHT22;5906;51.660;6.674;2023-07-09T01:44:40;21.60;99.90
11700;DHT22;5906;51.660;6.674;2023-07-09T01:47:08;21.60;99.90
11700;DHT22;5906;51.660;6.674;2023-07-09T01:49:35;21.50;99.90
11700;DHT22;5906;51.660;6.674;2023-07-09T01:52:03;21.40;99.90
11700;DHT22;5906;51.660;6.674;2023-07-09T01:54:31;21.30;99.90
11700;DHT22;5906;51.660;6.674;2023-07-09T01:57:15;21.30;99.90
11700;DHT22;5906;51.660;6.674;2023-07-09T01:59:42;21.20;99.90
11700;DHT22;5906;51.660;6.674;2023-07-09T02:02:11;21.30;99.90
11700;DHT22;5906;51.660;6.674;2023-07-09T02:04:47;21.20;99.90
11700;DHT22;5906;51.660;6.674;2023-07-09T02:07:15;21.10;99.90
11700;DHT22;5906;51.660;6.674;2023-07-09T02:09:42;21.00;99.90
11700;DHT22;5906;51.660;6.674;2023-07-09T02:12:11;20.90;99.90
11700;DHT22;5906;51.660;6.674;2023-07-09T02:14:39;20.90;99.90
11700;DHT22;5906;51.660;6.674;2023-07-09T02:17:07;20.90;99.90
11700;DHT22;5906;51.660;6.674;2023-07-09T02:19:35;20.80;99.90
11700;DHT22;5906;51.660;6.674;2023-07-09T02:22:03;20.80;99.90
11700;DHT22;5906;51.660;6.674;2023-07-09T02:24:31;20.80;99.90
11700;DHT22;5906;51.660;6.674;2023-07-09T02:27:00;20.80;99.90
11700;DHT22;5906;51.660;6.674;2023-07-09T02:29:28;20.70;99.90
11700;DHT22;5906;51.660;6.674;2023-07-09T02:31:57;20.70;99.90
11700;DHT22;5906;51.660;6.674;2023-07-09T02:34:28;20.60;99.90
11700;DHT22;5906;51.660;6.674;2023-07-09T02:36:57;20.60;99.90
11700;DHT22;5906;51.660;6.674;2023-07-09T02:39:25;20.50;99.90
11700;DHT22;5906;51.660;6.674;2023-07-09T02:41:52;20.50;99.90
11700;DHT22;5906;51.660;6.674;2023-07-09T02:44:19;20.40;99.90
11700;DHT22;5906;51.660;6.674;2023-07-09T02:46:47;20.30;99.90
11700;DHT22;5906;51.660;6.674;2023-07-09T02:49:15;20.40;99.90
11700;DHT22;5906;51.660;6.674;2023-07-09T02:51:42;20.30;99.90
11700;DHT22;5906;51.660;6.674;2023-07-09T02:54:10;20.30;99.90
11700;DHT22;5906;51.660;6.674;2023-07-09T02:56:37;20.20;99.90
11700;DHT22;5906;51.660;6.674;2023-07-09T02:59:05;20.20;99.90
11700;DHT22;5906;51.660;6.674;2023-07-09T03:01:32;20.10;99.90
11700;DHT22;5906;51.660;6.674;2023-07-09T03:04:01;20.10;99.90
11700;DHT22;5906;51.660;6.674;2023-07-09T03:06:31;20.10;99.90
11700;DHT22;5906;51.660;6.674;2023-07-09T03:09:03;20.00;99.90
11700;DHT22;5906;51.660;6.674;2023-07-09T03:11:32;20.00;99.90
11700;DHT22;5906;51.660;6.674;2023-07-09T03:14:01;20.10;99.90
11700;DHT22;5906;51.660;6.674;2023-07-09T03:16:30;20.00;99.90
11700;DHT22;5906;51.660;6.674;2023-07-09T03:18:57;20.00;99.90
11700;DHT22;5906;51.660;6.674;2023-07-09T03:21:26;19.90;99.90
11700;DHT22;5906;51.660;6.674;2023-07-09T03:23:54;19.80;99.90
11700;DHT22;5906;51.660;6.674;2023-07-09T03:26:21;19.80;99.90
11700;DHT22;5906;51.660;6.674;2023-07-09T03:28:48;19.90;99.90
11700;DHT22;5906;51.660;6.674;2023-07-09T03:31:16;19.80;99.90
11700;DHT22;5906;51.660;6.674;2023-07-09T03:33:43;19.70;99.90
11700;DHT22;5906;51.660;6.674;2023-07-09T03:36:10;19.60;99.90
11700;DHT22;5906;51.660;6.674;2023-07-09T03:38:37;19.60;99.90
11700;DHT22;5906;51.660;6.674;2023-07-09T03:41:04;19.60;99.90
11700;DHT22;5906;51.660;6.674;2023-07-09T03:43:32;19.50;99.90
11700;DHT22;5906;51.660;6.674;2023-07-09T03:45:59;19.60;99.90
11700;DHT22;5906;51.660;6.674;2023-07-09T03:48:27;19.60;99.90
11700;DHT22;5906;51.660;6.674;2023-07-09T03:50:54;19.60;99.90
11700;DHT22;5906;51.660;6.674;2023-07-09T03:53:22;19.60;99.90
11700;DHT22;5906;51.660;6.674;2023-07-09T03:55:55;19.50;99.90
11700;DHT22;5906;51.660;6.674;2023-07-09T03:58:23;19.50;99.90
11700;DHT22;5906;51.660;6.674;2023-07-09T04:00:51;19.50;99.90
11700;DHT22;5906;51.660;6.674;2023-07-09T04:03:18;19.50;99.90
11700;DHT22;5906;51.660;6.674;2023-07-09T04:05:46;19.50;99.90
11700;DHT22;5906;51.660;6.674;2023-07-09T04:08:13;19.60;99.90
11700;DHT22;5906;51.660;6.674;2023-07-09T04:10:40;19.60;99.90
11700;DHT22;5906;51.660;6.674;2023-07-09T04:13:07;19.60;99.90
11700;DHT22;5906;51.660;6.674;2023-07-09T04:15:34;19.70;99.90
11700;DHT22;5906;51.660;6.674;2023-07-09T04:18:01;19.60;99.90
11700;DHT22;5906;51.660;6.674;2023-07-09T04:20:28;19.60;99.90
11700;DHT22;5906;51.660;6.674;2023-07-09T04:22:55;19.60;99.90
11700;DHT22;5906;51.660;6.674;2023-07-09T04:25:22;19.70;99.90
11700;DHT22;5906;51.660;6.674;2023-07-09T04:27:49;19.80;99.90
11700;DHT22;5906;51.660;6.674;2023-07-09T04:30:17;19.80;99.90
11700;DHT22;5906;51.660;6.674;2023-07-09T04:32:44;19.80;99.90
11700;DHT22;5906;51.660;6.674;2023-07-09T04:35:13;19.90;99.90
11700;DHT22;5906;51.660;6.674;2023-07-09T04:37:41;20.00;99.90
11700;DHT22;5906;51.660;6.674;2023-07-09T04:40:09;20.10;99.90
11700;DHT22;5906;51.660;6.674;2023-07-09T04:42:39;20.10;99.90
11700;DHT22;5906;51.660;6.674;2023-07-09T04:45:08;20.20;99.90
11700;DHT22;5906;51.660;6.674;2023-07-09T04:47:36;20.30;99.90
11700;DHT22;5906;51.660;6.674;2023-07-09T04:50:08;20.40;99.90
11700;DHT22;5906;51.660;6.674;2023-07-09T04:52:36;20.50;99.90
11700;DHT22;5906;51.660;6.674;2023-07-09T04:55:03;20.70;99.90
11700;DHT22;5906;51.660;6.674;2023-07-09T04:57:30;21.00;99.90
11700;DHT22;5906;51.660;6.674;2023-07-09T04:59:57;21.30;99.90
11700;DHT22;5906;51.660;6.674;2023-07-09T05:02:24;21.70;99.90
11700;DHT22;5906;51.660;6.674;2023-07-09T05:04:52;22.00;99.90
11700;DHT22;5906;51.660;6.674;2023-07-09T05:07:19;22.30;99.90
11700;DHT22;5906;51.660;6.674;2023-07-09T05:09:46;22.60;99.90
11700;DHT22;5906;51.660;6.674;2023-07-09T05:12:14;22.70;99.90
11700;DHT22;5906;51.660;6.674;2023-07-09T05:14:41;22.90;99.90
11700;DHT22;5906;51.660;6.674;2023-07-09T05:17:09;23.10;99.90
11700;DHT22;5906;51.660;6.674;2023-07-09T05:19:36;23.30;99.90
11700;DHT22;5906;51.660;6.674;2023-07-09T05:22:04;23.50;99.90
11700;DHT22;5906;51.660;6.674;2023-07-09T05:24:31;23.60;99.90
11700;DHT22;5906;51.660;6.674;2023-07-09T05:26:58;23.80;99.90
11700;DHT22;5906;51.660;6.674;2023-07-09T05:29:25;23.90;99.90
11700;DHT22;5906;51.660;6.674;2023-07-09T05:31:52;23.90;99.90
11700;DHT22;5906;51.660;6.674;2023-07-09T05:34:20;23.90;99.90
11700;DHT22;5906;51.660;6.674;2023-07-09T05:36:48;24.00;99.90
11700;DHT22;5906;51.660;6.674;2023-07-09T05:39:15;24.10;99.90
11700;DHT22;5906;51.660;6.674;2023-07-09T05:41:43;24.30;99.90
11700;DHT22;5906;51.660;6.674;2023-07-09T05:44:10;24.40;99.90
11700;DHT22;5906;51.660;6.674;2023-07-09T05:46:37;24.40;99.90
11700;DHT22;5906;51.660;6.674;2023-07-09T05:49:05;24.60;99.90
11700;DHT22;5906;51.660;6.674;2023-07-09T05:51:34;24.90;99.90
11700;DHT22;5906;51.660;6.674;2023-07-09T05:54:01;25.00;99.90
11700;DHT22;5906;51.660;6.674;2023-07-09T05:56:28;25.20;99.90
11700;DHT22;5906;51.660;6.674;2023-07-09T05:58:56;25.40;99.90
11700;DHT22;5906;51.660;6.674;2023-07-09T06:01:24;25.70;99.90
11700;DHT22;5906;51.660;6.674;2023-07-09T06:03:52;25.80;99.90
11700;DHT22;5906;51.660;6.674;2023-07-09T06:06:20;25.90;99.90
11700;DHT22;5906;51.660;6.674;2023-07-09T06:08:48;25.90;99.90
11700;DHT22;5906;51.660;6.674;2023-07-09T06:11:17;26.00;99.90
11700;DHT22;5906;51.660;6.674;2023-07-09T06:13:46;26.10;99.90
11700;DHT22;5906;51.660;6.674;2023-07-09T06:16:15;26.20;98.70
11700;DHT22;5906;51.660;6.674;2023-07-09T06:18:42;26.30;97.90
11700;DHT22;5906;51.660;6.674;2023-07-09T06:21:09;26.50;95.90
11700;DHT22;5906;51.660;6.674;2023-07-09T06:23:38;26.70;96.30
11700;DHT22;5906;51.660;6.674;2023-07-09T06:26:05;26.90;93.90
11700;DHT22;5906;51.660;6.674;2023-07-09T06:28:32;27.00;93.80
11700;DHT22;5906;51.660;6.674;2023-07-09T06:31:00;27.20;92.10
11700;DHT22;5906;51.660;6.674;2023-07-09T06:33:28;27.40;91.70
11700;DHT22;5906;51.660;6.674;2023-07-09T06:36:00;27.40;91.10
11700;DHT22;5906;51.660;6.674;2023-07-09T06:38:29;27.60;91.60
11700;DHT22;5906;51.660;6.674;2023-07-09T06:40:57;27.80;86.40
11700;DHT22;5906;51.660;6.674;2023-07-09T06:43:24;28.00;83.40
11700;DHT22;5906;51.660;6.674;2023-07-09T06:45:57;28.20;82.10
11700;DHT22;5906;51.660;6.674;2023-07-09T06:48:27;28.30;82.80
11700;DHT22;5906;51.660;6.674;2023-07-09T06:50:55;28.40;84.40
11700;DHT22;5906;51.660;6.674;2023-07-09T06:53:22;28.60;82.40
11700;DHT22;5906;51.660;6.674;2023-07-09T06:55:50;28.80;78.50
11700;DHT22;5906;51.660;6.674;2023-07-09T06:58:17;29.00;74.40
11700;DHT22;5906;51.660;6.674;2023-07-09T07:00:45;29.10;70.20
11700;DHT22;5906;51.660;6.674;2023-07-09T07:03:12;29.30;67.00
11700;DHT22;5906;51.660;6.674;2023-07-09T07:05:47;29.40;69.20
11700;DHT22;5906;51.660;6.674;2023-07-09T07:08:17;29.70;69.60
11700;DHT22;5906;51.660;6.674;2023-07-09T07:10:45;30.00;64.60
11700;DHT22;5906;51.660;6.674;2023-07-09T07:13:13;30.10;61.10
11700;DHT22;5906;51.660;6.674;2023-07-09T07:15:41;30.10;58.60
11700;DHT22;5906;51.660;6.674;2023-07-09T07:18:08;30.30;58.20
11700;DHT22;5906;51.660;6.674;2023-07-09T07:20:35;30.30;53.10
11700;DHT22;5906;51.660;6.674;2023-07-09T07:23:02;30.20;54.00
11700;DHT22;5906;51.660;6.674;2023-07-09T07:25:32;30.40;56.80
11700;DHT22;5906;51.660;6.674;2023-07-09T07:27:59;30.60;50.60
11700;DHT22;5906;51.660;6.674;2023-07-09T07:30:26;30.60;49.40
11700;DHT22;5906;51.660;6.674;2023-07-09T07:32:53;31.00;49.20
11700;DHT22;5906;51.660;6.674;2023-07-09T07:35:21;31.40;44.50
11700;DHT22;5906;51.660;6.674;2023-07-09T07:37:49;31.70;39.50
11700;DHT22;5906;51.660;6.674;2023-07-09T07:40:16;31.30;42.20
11700;DHT22;5906;51.660;6.674;2023-07-09T07:42:42;31.20;37.30
11700;DHT22;5906;51.660;6.674;2023-07-09T07:45:10;31.40;39.90
11700;DHT22;5906;51.660;6.674;2023-07-09T07:47:36;31.60;33.20
11700;DHT22;5906;51.660;6.674;2023-07-09T07:50:05;31.70;35.20
11700;DHT22;5906;51.660;6.674;2023-07-09T07:52:33;31.90;33.80
11700;DHT22;5906;51.660;6.674;2023-07-09T07:55:05;32.20;29.10
11700;DHT22;5906;51.660;6.674;2023-07-09T07:57:33;32.40;26.10
11700;DHT22;5906;51.660;6.674;2023-07-09T08:00:00;32.30;27.00
11700;DHT22;5906;51.660;6.674;2023-07-09T08:02:29;32.40;27.10
11700;DHT22;5906;51.660;6.674;2023-07-09T08:04:59;32.50;28.60
11700;DHT22;5906;51.660;6.674;2023-07-09T08:07:26;32.60;24.60
11700;DHT22;5906;51.660;6.674;2023-07-09T08:09:53;32.90;25.70
11700;DHT22;5906;51.660;6.674;2023-07-09T08:12:20;33.10;21.30
11700;DHT22;5906;51.660;6.674;2023-07-09T08:14:47;33.30;21.70
11700;DHT22;5906;51.660;6.674;2023-07-09T08:17:14;33.40;17.40
11700;DHT22;5906;51.660;6.674;2023-07-09T08:19:52;33.30;17.10
11700;DHT22;5906;51.660;6.674;2023-07-09T08:22:21;33.20;17.10
11700;DHT22;5906;51.660;6.674;2023-07-09T08:24:49;33.40;17.10
11700;DHT22;5906;51.660;6.674;2023-07-09T08:27:17;33.80;15.90
11700;DHT22;5906;51.660;6.674;2023-07-09T08:29:46;34.10;15.20
11700;DHT22;5906;51.660;6.674;2023-07-09T08:32:13;34.10;13.40
11700;DHT22;5906;51.660;6.674;2023-07-09T08:34:41;34.40;11.30
11700;DHT22;5906;51.660;6.674;2023-07-09T08:37:28;34.40;11.30
11700;DHT22;5906;51.660;6.674;2023-07-09T08:39:55;34.50;10.20
11700;DHT22;5906;51.660;6.674;2023-07-09T08:42:46;34.70;11.20
11700;DHT22;5906;51.660;6.674;2023-07-09T08:48:18;34.80;7.30
11700;DHT22;5906;51.660;6.674;2023-07-09T08:50:52;34.90;5.50
11700;DHT22;5906;51.660;6.674;2023-07-09T08:53:38;35.20;4.80
11700;DHT22;5906;51.660;6.674;2023-07-09T08:56:11;34.80;4.50
11700;DHT22;5906;51.660;6.674;2023-07-09T08:58:41;34.90;5.80
11700;DHT22;5906;51.660;6.674;2023-07-09T09:01:18;35.20;5.10
11700;DHT22;5906;51.660;6.674;2023-07-09T09:03:51;35.30;1.80
11700;DHT22;5906;51.660;6.674;2023-07-09T09:06:22;35.40;2.10
11700;DHT22;5906;51.660;6.674;2023-07-09T09:14:28;35.80;1.00
11700;DHT22;5906;51.660;6.674;2023-07-09T09:16:56;35.80;1.00
11700;DHT22;5906;51.660;6.674;2023-07-09T09:19:38;35.70;1.00
11700;DHT22;5906;51.660;6.674;2023-07-09T09:22:11;35.60;1.00
11700;DHT22;5906;51.660;6.674;2023-07-09T09:25:05;35.60;1.00
11700;DHT22;5906;51.660;6.674;2023-07-09T09:27:38;35.60;1.00
11700;DHT22;5906;51.660;6.674;2023-07-09T09:30:18;36.00;1.00
11700;DHT22;5906;51.660;6.674;2023-07-09T09:32:50;36.30;1.00
11700;DHT22;5906;51.660;6.674;2023-07-09T09:35:31;36.60;1.00
11700;DHT22;5906;51.660;6.674;2023-07-09T09:38:13;37.10;1.00
11700;DHT22;5906;51.660;6.674;2023-07-09T09:40:42;37.20;1.00
11700;DHT22;5906;51.660;6.674;2023-07-09T09:43:15;37.10;1.00
11700;DHT22;5906;51.660;6.674;2023-07-09T09:45:44;37.00;1.00
11700;DHT22;5906;51.660;6.674;2023-07-09T09:48:26;37.00;1.00
11700;DHT22;5906;51.660;6.674;2023-07-09T09:50:54;37.20;1.00
11700;DHT22;5906;51.660;6.674;2023-07-09T09:53:25;37.50;1.00
11700;DHT22;5906;51.660;6.674;2023-07-09T09:55:53;37.90;1.00
11700;DHT22;5906;51.660;6.674;2023-07-09T09:58:29;37.80;1.00
11700;DHT22;5906;51.660;6.674;2023-07-09T10:00:57;38.00;1.00
11700;DHT22;5906;51.660;6.674;2023-07-09T10:03:36;38.00;1.00
11700;DHT22;5906;51.660;6.674;2023-07-09T10:06:19;37.90;1.00
11700;DHT22;5906;51.660;6.674;2023-07-09T10:09:04;37.90;1.00
11700;DHT22;5906;51.660;6.674;2023-07-09T10:11:47;37.90;1.00
11700;DHT22;5906;51.660;6.674;2023-07-09T10:14:34;38.30;1.00
11700;DHT22;5906;51.660;6.674;2023-07-09T10:20:21;38.70;1.00
11700;DHT22;5906;51.660;6.674;2023-07-09T10:23:09;38.50;1.00
11700;DHT22;5906;51.660;6.674;2023-07-09T10:39:34;38.50;1.00
11700;DHT22;5906;51.660;6.674;2023-07-09T10:42:03;38.60;1.00
11700;DHT22;5906;51.660;6.674;2023-07-09T10:44:41;38.30;1.00
11700;DHT22;5906;51.660;6.674;2023-07-09T10:47:16;38.20;1.00
11700;DHT22;5906;51.660;6.674;2023-07-09T10:49:48;38.30;1.00
11700;DHT22;5906;51.660;6.674;2023-07-09T10:52:29;38.40;1.00
11700;DHT22;5906;51.660;6.674;2023-07-09T10:55:04;38.80;1.00
11700;DHT22;5906;51.660;6.674;2023-07-09T10:57:58;38.90;1.00
11700;DHT22;5906;51.660;6.674;2023-07-09T11:00:36;39.10;1.00
11700;DHT22;5906;51.660;6.674;2023-07-09T11:05:40;39.00;1.00
11700;DHT22;5906;51.660;6.674;2023-07-09T11:08:18;39.30;1.00
11700;DHT22;5906;51.660;6.674;2023-07-09T11:10:55;39.50;1.00
11700;DHT22;5906;51.660;6.674;2023-07-09T11:14:04;39.70;1.00
11700;DHT22;5906;51.660;6.674;2023-07-09T11:16:29;39.40;1.00
11700;DHT22;5906;51.660;6.674;2023-07-09T11:19:03;39.30;1.00
11700;DHT22;5906;51.660;6.674;2023-07-09T11:21:32;39.20;1.00
11700;DHT22;5906;51.660;6.674;2023-07-09T11:24:01;39.30;1.00
11700;DHT22;5906;51.660;6.674;2023-07-09T11:26:30;39.50;1.00
11700;DHT22;5906;51.660;6.674;2023-07-09T11:31:36;39.60;1.00
11700;DHT22;5906;51.660;6.674;2023-07-09T11:34:19;39.30;1.00
11700;DHT22;5906;51.660;6.674;2023-07-09T11:36:58;39.30;1.00
11700;DHT22;5906;51.660;6.674;2023-07-09T11:42:50;39.50;1.00
11700;DHT22;5906;51.660;6.674;2023-07-09T11:45:24;39.50;1.00
11700;DHT22;5906;51.660;6.674;2023-07-09T11:48:13;39.90;1.00
11700;DHT22;5906;51.660;6.674;2023-07-09T11:50:48;40.10;1.00
11700;DHT22;5906;51.660;6.674;2023-07-09T11:55:45;39.10;1.00
11700;DHT22;5906;51.660;6.674;2023-07-09T11:58:15;39.30;1.00
11700;DHT22;5906;51.660;6.674;2023-07-09T12:00:51;39.50;1.00
11700;DHT22;5906;51.660;6.674;2023-07-09T12:03:33;39.20;1.00
11700;DHT22;5906;51.660;6.674;2023-07-09T12:06:07;39.40;1.00
11700;DHT22;5906;51.660;6.674;2023-07-09T12:08:41;39.50;1.00
11700;DHT22;5906;51.660;6.674;2023-07-09T12:11:24;39.70;1.00
11700;DHT22;5906;51.660;6.674;2023-07-09T12:13:52;39.50;1.00
11700;DHT22;5906;51.660;6.674;2023-07-09T12:16:32;39.60;1.00
11700;DHT22;5906;51.660;6.674;2023-07-09T12:19:00;39.70;1.00
11700;DHT22;5906;51.660;6.674;2023-07-09T12:21:27;39.10;1.00
11700;DHT22;5906;51.660;6.674;2023-07-09T12:23:55;39.10;1.00
11700;DHT22;5906;51.660;6.674;2023-07-09T12:26:25;39.00;1.00
11700;DHT22;5906;51.660;6.674;2023-07-09T12:28:53;39.10;1.00
11700;DHT22;5906;51.660;6.674;2023-07-09T12:31:29;39.20;1.00
11700;DHT22;5906;51.660;6.674;2023-07-09T12:33:58;39.40;1.00
11700;DHT22;5906;51.660;6.674;2023-07-09T12:36:27;39.00;1.00
11700;DHT22;5906;51.660;6.674;2023-07-09T12:39:01;39.10;1.00
11700;DHT22;5906;51.660;6.674;2023-07-09T12:41:38;39.00;1.00
11700;DHT22;5906;51.660;6.674;2023-07-09T12:44:14;39.00;1.00
11700;DHT22;5906;51.660;6.674;2023-07-09T12:46:43;39.00;1.00
11700;DHT22;5906;51.660;6.674;2023-07-09T12:49:25;38.90;1.00
11700;DHT22;5906;51.660;6.674;2023-07-09T12:52:02;39.00;1.00
11700;DHT22;5906;51.660;6.674;2023-07-09T12:54:30;39.20;1.00
11700;DHT22;5906;51.660;6.674;2023-07-09T12:56:59;39.10;1.00
11700;DHT22;5906;51.660;6.674;2023-07-09T12:59:39;38.90;1.00
11700;DHT22;5906;51.660;6.674;2023-07-09T13:02:39;39.10;1.00
11700;DHT22;5906;51.660;6.674;2023-07-09T13:05:18;39.00;1.00
11700;DHT22;5906;51.660;6.674;2023-07-09T13:07:59;39.10;1.00
11700;DHT22;5906;51.660;6.674;2023-07-09T13:10:31;39.00;1.00
11700;DHT22;5906;51.660;6.674;2023-07-09T13:13:03;39.00;1.00
11700;DHT22;5906;51.660;6.674;2023-07-09T13:18:11;38.80;1.00
11700;DHT22;5906;51.660;6.674;2023-07-09T13:20:41;38.90;1.00
11700;DHT22;5906;51.660;6.674;2023-07-09T13:23:19;38.90;1.00
11700;DHT22;5906;51.660;6.674;2023-07-09T13:25:46;39.10;1.00
11700;DHT22;5906;51.660;6.674;2023-07-09T13:28:23;39.30;1.00
11700;DHT22;5906;51.660;6.674;2023-07-09T13:33:35;39.40;1.00
11700;DHT22;5906;51.660;6.674;2023-07-09T13:36:03;39.30;1.00
11700;DHT22;5906;51.660;6.674;2023-07-09T13:38:31;39.20;1.00
11700;DHT22;5906;51.660;6.674;2023-07-09T13:41:01;39.20;1.00
11700;DHT22;5906;51.660;6.674;2023-07-09T13:43:31;39.20;1.00
11700;DHT22;5906;51.660;6.674;2023-07-09T13:46:00;39.10;1.00
11700;DHT22;5906;51.660;6.674;2023-07-09T13:48:31;39.00;1.00
11700;DHT22;5906;51.660;6.674;2023-07-09T13:50:59;39.00;1.00
11700;DHT22;5906;51.660;6.674;2023-07-09T13:53:30;38.80;1.00
11700;DHT22;5906;51.660;6.674;2023-07-09T13:55:58;38.80;1.00
11700;DHT22;5906;51.660;6.674;2023-07-09T13:58:26;38.60;1.00
11700;DHT22;5906;51.660;6.674;2023-07-09T14:00:58;38.50;1.00
11700;DHT22;5906;51.660;6.674;2023-07-09T14:03:34;38.40;1.00
11700;DHT22;5906;51.660;6.674;2023-07-09T14:06:01;38.30;1.00
11700;DHT22;5906;51.660;6.674;2023-07-09T14:10:56;37.70;1.00
11700;DHT22;5906;51.660;6.674;2023-07-09T14:13:24;37.40;1.00
11700;DHT22;5906;51.660;6.674;2023-07-09T14:15:52;37.30;1.00
11700;DHT22;5906;51.660;6.674;2023-07-09T14:18:22;37.10;1.00
11700;DHT22;5906;51.660;6.674;2023-07-09T14:20:50;36.90;1.00
11700;DHT22;5906;51.660;6.674;2023-07-09T14:23:18;36.80;1.00
11700;DHT22;5906;51.660;6.674;2023-07-09T14:25:46;36.40;1.00
11700;DHT22;5906;51.660;6.674;2023-07-09T14:28:19;35.60;1.00
11700;DHT22;5906;51.660;6.674;2023-07-09T14:30:49;35.00;1.00
11700;DHT22;5906;51.660;6.674;2023-07-09T14:33:19;34.20;1.00
11700;DHT22;5906;51.660;6.674;2023-07-09T14:35:48;32.70;4.60
11700;DHT22;5906;51.660;6.674;2023-07-09T14:38:25;29.80;28.70
11700;DHT22;5906;51.660;6.674;2023-07-09T14:40:55;27.40;94.90
11700;DHT22;5906;51.660;6.674;2023-07-09T14:43:22;26.40;99.90
11700;DHT22;5906;51.660;6.674;2023-07-09T14:45:49;26.10;99.90
11700;DHT22;5906;51.660;6.674;2023-07-09T14:48:19;26.10;99.90
11700;DHT22;5906;51.660;6.674;2023-07-09T14:50:47;26.10;1.00
11700;DHT22;5906;51.660;6.674;2023-07-09T14:53:24;26.10;1.00
11700;DHT22;5906;51.660;6.674;2023-07-09T14:55:56;26.00;1.00
11700;DHT22;5906;51.660;6.674;2023-07-09T14:58:23;26.10;1.00
11700;DHT22;5906;51.660;6.674;2023-07-09T15:00:50;25.60;99.90
11700;DHT22;5906;51.660;6.674;2023-07-09T15:03:26;25.60;99.90
11700;DHT22;5906;51.660;6.674;2023-07-09T15:05:53;25.50;99.90
11700;DHT22;5906;51.660;6.674;2023-07-09T15:08:25;25.30;99.90
11700;DHT22;5906;51.660;6.674;2023-07-09T15:10:53;24.90;99.90
11700;DHT22;5906;51.660;6.674;2023-07-09T15:13:35;24.30;99.90
11700;DHT22;5906;51.660;6.674;2023-07-09T15:16:04;24.00;26.00
11700;DHT22;5906;51.660;6.674;2023-07-09T15:18:31;23.90;99.90
11700;DHT22;5906;51.660;6.674;2023-07-09T15:21:04;24.10;99.90
11700;DHT22;5906;51.660;6.674;2023-07-09T15:23:36;24.10;99.90
11700;DHT22;5906;51.660;6.674;2023-07-09T15:26:13;24.20;99.90
11700;DHT22;5906;51.660;6.674;2023-07-09T15:28:41;24.20;99.90
11700;DHT22;5906;51.660;6.674;2023-07-09T15:31:11;24.30;99.90
11700;DHT22;5906;51.660;6.674;2023-07-09T15:33:39;24.20;99.90
11700;DHT22;5906;51.660;6.674;2023-07-09T15:36:10;24.10;99.90
11700;DHT22;5906;51.660;6.674;2023-07-09T15:38:37;24.00;99.90
11700;DHT22;5906;51.660;6.674;2023-07-09T15:41:14;23.90;99.90
11700;DHT22;5906;51.660;6.674;2023-07-09T15:43:42;23.90;99.90
11700;DHT22;5906;51.660;6.674;2023-07-09T15:46:17;24.10;99.90
11700;DHT22;5906;51.660;6.674;2023-07-09T15:48:45;24.20;99.90
11700;DHT22;5906;51.660;6.674;2023-07-09T15:51:13;24.20;99.90
11700;DHT22;5906;51.660;6.674;2023-07-09T15:53:40;24.20;99.90
11700;DHT22;5906;51.660;6.674;2023-07-09T15:56:27;24.10;99.90
11700;DHT22;5906;51.660;6.674;2023-07-09T15:58:57;24.00;99.90
11700;DHT22;5906;51.660;6.674;2023-07-09T16:01:24;24.00;99.90
11700;DHT22;5906;51.660;6.674;2023-07-09T16:03:58;24.10;99.90
11700;DHT22;5906;51.660;6.674;2023-07-09T16:06:25;24.10;99.90
11700;DHT22;5906;51.660;6.674;2023-07-09T16:08:52;24.10;99.90
11700;DHT22;5906;51.660;6.674;2023-07-09T16:11:22;24.20;99.90
11700;DHT22;5906;51.660;6.674;2023-07-09T16:13:50;24.20;99.90
11700;DHT22;5906;51.660;6.674;2023-07-09T16:16:21;24.10;99.90
11700;DHT22;5906;51.660;6.674;2023-07-09T16:18:49;24.00;99.90
11700;DHT22;5906;51.660;6.674;2023-07-09T16:23:50;23.80;99.90
11700;DHT22;5906;51.660;6.674;2023-07-09T16:26:18;23.80;99.90
11700;DHT22;5906;51.660;6.674;2023-07-09T16:28:45;23.60;99.90
11700;DHT22;5906;51.660;6.674;2023-07-09T16:31:12;23.40;99.90
11700;DHT22;5906;51.660;6.674;2023-07-09T16:33:39;23.30;99.90
11700;DHT22;5906;51.660;6.674;2023-07-09T16:36:12;23.10;99.90
11700;DHT22;5906;51.660;6.674;2023-07-09T16:38:40;23.10;99.90
11700;DHT22;5906;51.660;6.674;2023-07-09T16:41:10;23.10;99.90
11700;DHT22;5906;51.660;6.674;2023-07-09T16:43:39;23.20;99.90
11700;DHT22;5906;51.660;6.674;2023-07-09T16:46:22;23.30;99.90
11700;DHT22;5906;51.660;6.674;2023-07-09T16:48:53;23.40;99.90
11700;DHT22;5906;51.660;6.674;2023-07-09T16:51:21;23.40;99.90
11700;DHT22;5906;51.660;6.674;2023-07-09T16:53:48;23.50;99.90
11700;DHT22;5906;51.660;6.674;2023-07-09T16:56:15;23.50;99.90
11700;DHT22;5906;51.660;6.674;2023-07-09T16:58:42;23.50;99.90
11700;DHT22;5906;51.660;6.674;2023-07-09T17:01:09;23.50;99.90
11700;DHT22;5906;51.660;6.674;2023-07-09T17:03:38;23.60;99.90